Time;durP1;ratioP1;P1;durP2;ratioP2;P2;SDS_P1;SDS_P2;PMS_P1;PMS_P2;Temp;Humidity;BMP_temperature;BMP_pressure;BME280_temperature;BME280_humidity;BME280_pressure;Samples;Min_cycle;Max_cycle;Signal;HPM_P1;HPM_P2
2022/10/30 00:15:26;;;;;;;37.47;28.57;;;12.00;99.90;;;;;;5702053;24;21103;-83
2022/10/30 01:11:32;;;;;;;34.53;25.97;;;12.30;99.90;;;;;;5646871;24;20422;-82
2022/10/30 02:02:17;;;;;;;32.60;24.40;;;12.20;99.90;;;;;;5637050;24;20199;-82
2022/10/30 02:32:40;;;;;;;32.93;24.07;;;12.30;99.90;;;;;;5635709;24;20505;-82
2022/10/30 02:58:02;;;;;;;34.80;25.77;;;12.30;99.90;;;;;;5564669;25;20918;-84
2022/10/30 03:34:16;;;;;;;30.87;23.57;;;12.40;99.90;;;;;;6131615;22;20176;-83
2022/10/30 04:09:10;;;;;;;32.93;22.97;;;12.30;99.90;;;;;;5921746;23;20516;-84
2022/10/30 04:40:13;;;;;;;38.90;27.17;;;12.30;99.90;;;;;;6029601;23;20222;-82
2022/10/30 05:20:49;;;;;;;34.57;25.37;;;12.40;99.90;;;;;;6122236;23;20251;-84
2022/10/30 05:56:22;;;;;;;34.97;24.47;;;12.40;99.90;;;;;;6062816;23;20244;-82
2022/10/30 06:00:43;;;;;;;35.07;25.43;;;12.40;99.90;;;;;;5886497;23;20703;-85
2022/10/30 07:57:46;;;;;;;23.30;16.37;;;14.50;99.90;;;;;;5774753;24;20183;-83
2022/10/30 08:48:51;;;;;;;23.33;15.37;;;15.10;96.70;;;;;;5760236;24;20373;-83
2022/10/30 09:29:19;;;;;;;17.53;14.20;;;15.50;95.30;;;;;;5793110;24;20691;-83
2022/10/30 09:59:49;;;;;;;15.83;13.43;;;15.50;94.20;;;;;;5932551;23;20456;-81
2022/10/30 10:45:03;;;;;;;12.27;8.73;;;15.80;89.50;;;;;;5947362;23;20516;-83
2022/10/30 11:10:37;;;;;;;7.57;6.43;;;16.10;86.30;;;;;;5966079;23;20216;-84
2022/10/30 12:36:56;;;;;;;10.13;7.33;;;16.10;86.60;;;;;;6144495;22;20155;-83
2022/10/30 13:07:18;;;;;;;8.47;7.77;;;15.40;87.80;;;;;;6099011;23;20329;-83
2022/10/30 13:37:16;;;;;;;7.27;6.67;;;15.70;86.30;;;;;;5865561;24;20194;-85
2022/10/30 13:58:03;;;;;;;8.10;7.40;;;15.30;87.50;;;;;;5920352;23;20239;-83
2022/10/30 15:18:40;;;;;;;7.57;6.50;;;13.60;93.30;;;;;;4953414;28;20393;-83
2022/10/30 15:48:59;;;;;;;7.73;6.40;;;13.20;98.60;;;;;;4804945;29;20230;-82
2022/10/30 16:49:56;;;;;;;15.13;11.00;;;12.60;99.90;;;;;;4674205;29;20586;-81
2022/10/30 17:15:16;;;;;;;11.43;9.00;;;12.20;99.90;;;;;;4712844;29;20476;-82
2022/10/30 17:50:53;;;;;;;20.70;13.23;;;11.40;99.90;;;;;;4856742;28;20360;-84
2022/10/30 18:11:25;;;;;;;19.33;14.20;;;10.90;99.90;;;;;;4803477;29;20233;-83
2022/10/30 18:32:03;;;;;;;30.87;20.17;;;10.70;99.90;;;;;;4735373;29;20378;-83
2022/10/30 19:12:35;;;;;;;33.37;24.70;;;10.50;99.90;;;;;;4949330;28;20208;-83
2022/10/30 19:16:58;;;;;;;36.27;27.43;;;10.60;99.90;;;;;;4921587;28;20595;-83
2022/10/30 19:37:56;;;;;;;25.10;19.20;;;10.60;99.90;;;;;;4906885;28;20806;-82
2022/10/30 20:12:45;;;;;;;30.17;19.60;;;9.90;99.90;;;;;;4759141;29;20691;-83
2022/10/30 20:28:36;;;;;;;34.20;23.93;;;9.60;99.90;;;;;;4669876;30;20333;-83
2022/10/30 20:59:06;;;;;;;39.73;27.93;;;9.20;99.90;;;;;;4711584;29;20209;-85
2022/10/30 21:19:22;;;;;;;48.90;34.03;;;8.70;99.90;;;;;;4752814;29;20477;-82
2022/10/30 21:44:42;;;;;;;53.97;37.17;;;8.60;99.90;;;;;;4886979;28;20198;-84
2022/10/30 22:14:59;;;;;;;53.27;40.33;;;8.20;99.90;;;;;;4806438;29;20238;-82
2022/10/30 22:40:22;;;;;;;62.10;43.33;;;8.00;99.90;;;;;;4752287;29;20219;-82
2022/10/30 23:05:36;;;;;;;75.63;49.63;;;7.90;99.90;;;;;;4778162;29;20251;-84
2022/10/30 23:41:19;;;;;;;78.20;53.73;;;7.60;99.90;;;;;;4678348;29;20222;-83
